Time;durP1;ratioP1;P1;durP2;ratioP2;P2;SDS_P1;SDS_P2;PMS_P1;PMS_P2;Temp;Humidity;BMP_temperature;BMP_pressure;BME280_temperature;BME280_humidity;BME280_pressure;Samples;Min_cycle;Max_cycle;Signal;HPM_P1;HPM_P2
2021/10/07 00:02:16;;;;;;;16.58;7.63;;;;;;;;;;7388612;19;20485;-45
2021/10/07 00:04:44;;;;;;;11.07;6.93;;;;;;;;;;7387238;19;20173;-44
2021/10/07 00:07:12;;;;;;;8.77;6.15;;;;;;;;;;7388926;19;20022;-46
2021/10/07 00:09:40;;;;;;;12.32;6.97;;;;;;;;;;7388829;19;20041;-42
2021/10/07 00:12:08;;;;;;;11.48;7.15;;;;;;;;;;7389782;19;20052;-42
2021/10/07 00:14:37;;;;;;;10.48;7.25;;;;;;;;;;7388731;19;20041;-42
2021/10/07 00:17:05;;;;;;;12.05;7.07;;;;;;;;;;7388784;19;20011;-41
2021/10/07 00:19:33;;;;;;;9.98;6.78;;;;;;;;;;7388633;19;20016;-42
2021/10/07 00:22:02;;;;;;;14.02;6.63;;;;;;;;;;7388697;19;20083;-44
2021/10/07 00:24:29;;;;;;;9.13;6.22;;;;;;;;;;7386828;19;20186;-43
2021/10/07 00:27:00;;;;;;;13.10;6.57;;;;;;;;;;7386517;19;20014;-41
2021/10/07 00:32:05;;;;;;;10.77;6.15;;;;;;;;;;7388027;19;20014;-43
2021/10/07 00:37:21;;;;;;;16.10;7.53;;;;;;;;;;7388199;19;20015;-43
2021/10/07 00:39:49;;;;;;;9.77;6.95;;;;;;;;;;7387971;19;20015;-45
2021/10/07 00:42:18;;;;;;;9.07;6.95;;;;;;;;;;7387673;19;20015;-46
2021/10/07 00:44:46;;;;;;;10.23;6.72;;;;;;;;;;7386607;19;20082;-44
2021/10/07 00:47:16;;;;;;;12.98;7.25;;;;;;;;;;7387336;19;20015;-43
2021/10/07 00:49:44;;;;;;;13.60;6.68;;;;;;;;;;7387295;19;20029;-45
2021/10/07 00:52:17;;;;;;;12.85;7.57;;;;;;;;;;7387459;19;20016;-42
2021/10/07 00:54:48;;;;;;;9.77;6.37;;;;;;;;;;7387198;19;20010;-44
2021/10/07 00:57:18;;;;;;;11.48;6.78;;;;;;;;;;7388137;19;20023;-42
2021/10/07 00:59:47;;;;;;;16.58;7.80;;;;;;;;;;7387460;19;20015;-42
2021/10/07 01:02:16;;;;;;;11.18;7.13;;;;;;;;;;7387304;19;20014;-43
2021/10/07 01:04:44;;;;;;;12.68;7.18;;;;;;;;;;7385665;19;20078;-40
2021/10/07 01:07:12;;;;;;;14.30;7.82;;;;;;;;;;7386828;19;20014;-41
2021/10/07 01:09:40;;;;;;;12.10;7.00;;;;;;;;;;7388062;19;20011;-42
2021/10/07 01:12:08;;;;;;;11.68;7.97;;;;;;;;;;7396137;19;20007;-42
2021/10/07 01:14:50;;;;;;;14.32;7.47;;;;;;;;;;7394711;19;20017;-42
2021/10/07 01:17:26;;;;;;;9.10;6.90;;;;;;;;;;7393619;19;20017;-42
2021/10/07 01:19:55;;;;;;;11.95;6.63;;;;;;;;;;7394659;19;20007;-42
2021/10/07 01:22:24;;;;;;;10.63;7.38;;;;;;;;;;7394963;19;20007;-42
2021/10/07 01:24:53;;;;;;;14.30;7.68;;;;;;;;;;7392373;19;20455;-45
2021/10/07 01:27:24;;;;;;;15.10;7.90;;;;;;;;;;7393810;19;20489;-41
2021/10/07 01:29:54;;;;;;;11.35;6.95;;;;;;;;;;7393624;19;20484;-43
2021/10/07 01:32:22;;;;;;;12.52;7.88;;;;;;;;;;7394098;19;20019;-46
2021/10/07 01:34:50;;;;;;;12.13;8.38;;;;;;;;;;7393553;19;20033;-42
2021/10/07 01:37:18;;;;;;;13.30;8.32;;;;;;;;;;7392531;19;20069;-42
2021/10/07 01:39:45;;;;;;;196.02;94.65;;;;;;;;;;7393887;19;20740;-44
2021/10/07 01:42:13;;;;;;;80.65;39.97;;;;;;;;;;7393418;19;20015;-47
2021/10/07 01:44:40;;;;;;;28.33;16.92;;;;;;;;;;7391960;19;20014;-43
2021/10/07 01:47:08;;;;;;;16.17;9.30;;;;;;;;;;7393766;19;20018;-43
2021/10/07 01:49:36;;;;;;;15.45;9.50;;;;;;;;;;7393348;19;20021;-42
2021/10/07 01:52:04;;;;;;;11.75;9.00;;;;;;;;;;7393648;19;20021;-45
2021/10/07 01:54:31;;;;;;;10.73;7.95;;;;;;;;;;7396998;19;20010;-42
2021/10/07 01:56:59;;;;;;;12.75;8.85;;;;;;;;;;7392835;19;20094;-45
2021/10/07 01:59:27;;;;;;;15.35;9.65;;;;;;;;;;7393586;19;20097;-45
2021/10/07 02:01:55;;;;;;;12.00;8.57;;;;;;;;;;7392802;19;20010;-45
2021/10/07 02:04:23;;;;;;;12.65;9.05;;;;;;;;;;7390043;19;20022;-43
2021/10/07 02:06:50;;;;;;;15.60;8.95;;;;;;;;;;7392518;19;20006;-41
2021/10/07 02:09:18;;;;;;;15.98;9.40;;;;;;;;;;7392276;19;20018;-42
2021/10/07 02:11:46;;;;;;;205.82;106.85;;;;;;;;;;7393021;19;20018;-44
2021/10/07 02:14:13;;;;;;;18.92;12.35;;;;;;;;;;7392417;19;20033;-42
2021/10/07 02:16:41;;;;;;;15.88;10.27;;;;;;;;;;7392473;19;20020;-44
2021/10/07 02:19:08;;;;;;;13.05;9.52;;;;;;;;;;7390693;19;20093;-43
2021/10/07 02:21:36;;;;;;;17.85;10.07;;;;;;;;;;7391921;19;20011;-44
2021/10/07 02:24:04;;;;;;;11.43;7.55;;;;;;;;;;7391562;19;20082;-44
2021/10/07 02:26:31;;;;;;;15.32;10.43;;;;;;;;;;7392111;19;20024;-43
2021/10/07 02:28:59;;;;;;;18.65;10.13;;;;;;;;;;7391211;19;20037;-42
2021/10/07 02:31:26;;;;;;;175.30;83.78;;;;;;;;;;7392605;19;20025;-42
2021/10/07 02:33:55;;;;;;;37.45;21.75;;;;;;;;;;7392680;19;20031;-45
2021/10/07 02:36:23;;;;;;;17.80;10.25;;;;;;;;;;7391545;19;20014;-41
2021/10/07 02:38:51;;;;;;;15.43;9.73;;;;;;;;;;7391083;19;20015;-43
2021/10/07 02:41:19;;;;;;;17.90;10.65;;;;;;;;;;7391556;19;20010;-44
2021/10/07 02:43:47;;;;;;;15.55;9.30;;;;;;;;;;7391422;19;20542;-41
2021/10/07 02:46:14;;;;;;;18.90;10.15;;;;;;;;;;7391729;19;20018;-41
2021/10/07 02:48:43;;;;;;;19.48;10.38;;;;;;;;;;7391032;19;20041;-40
2021/10/07 02:51:15;;;;;;;15.52;9.73;;;;;;;;;;7391259;19;20033;-41
2021/10/07 02:53:42;;;;;;;15.13;10.13;;;;;;;;;;7391166;19;20006;-44
2021/10/07 02:56:09;;;;;;;12.15;8.98;;;;;;;;;;7390851;19;20031;-41
2021/10/07 02:58:37;;;;;;;15.90;9.70;;;;;;;;;;7390379;19;20074;-52
2021/10/07 03:01:06;;;;;;;16.42;10.88;;;;;;;;;;7391413;19;20018;-44
2021/10/07 03:03:33;;;;;;;14.07;9.68;;;;;;;;;;7391523;19;20010;-50
2021/10/07 03:06:01;;;;;;;17.63;9.55;;;;;;;;;;7388027;19;20112;-43
2021/10/07 03:08:29;;;;;;;206.45;92.10;;;;;;;;;;7390803;19;20397;-44
2021/10/07 03:10:57;;;;;;;71.32;37.47;;;;;;;;;;7390075;19;20010;-44
2021/10/07 03:13:24;;;;;;;15.48;10.70;;;;;;;;;;7394400;19;20031;-48
2021/10/07 03:15:52;;;;;;;15.27;10.30;;;;;;;;;;7390405;19;20006;-42
2021/10/07 03:18:19;;;;;;;14.73;9.15;;;;;;;;;;7387386;19;20034;-43
2021/10/07 03:20:47;;;;;;;15.27;10.07;;;;;;;;;;7390494;19;20007;-41
2021/10/07 03:23:14;;;;;;;13.27;9.35;;;;;;;;;;7389970;19;20010;-42
2021/10/07 03:25:42;;;;;;;13.82;9.68;;;;;;;;;;7388907;19;20025;-42
2021/10/07 03:28:09;;;;;;;18.13;11.07;;;;;;;;;;7390249;19;20031;-41
2021/10/07 03:30:36;;;;;;;22.35;10.07;;;;;;;;;;7389983;19;20019;-43
2021/10/07 03:33:09;;;;;;;10.18;8.15;;;;;;;;;;7388514;19;20021;-46
2021/10/07 03:35:37;;;;;;;115.65;51.53;;;;;;;;;;7388608;19;20033;-40
2021/10/07 03:38:05;;;;;;;20.00;13.20;;;;;;;;;;7390072;19;20021;-48
2021/10/07 03:40:32;;;;;;;19.02;10.65;;;;;;;;;;7389580;19;20038;-41
2021/10/07 03:43:00;;;;;;;17.85;10.35;;;;;;;;;;7389919;19;20730;-41
2021/10/07 03:45:28;;;;;;;14.82;9.85;;;;;;;;;;7388406;19;20010;-41
2021/10/07 03:47:55;;;;;;;15.40;10.07;;;;;;;;;;7389385;19;20469;-44
2021/10/07 03:50:23;;;;;;;14.98;10.68;;;;;;;;;;7389223;19;20010;-41
2021/10/07 03:52:50;;;;;;;15.63;10.63;;;;;;;;;;7389446;19;20010;-46
2021/10/07 03:55:18;;;;;;;19.17;10.45;;;;;;;;;;7388310;19;20327;-41
2021/10/07 03:57:46;;;;;;;12.85;9.93;;;;;;;;;;7388916;19;20081;-48
2021/10/07 04:00:13;;;;;;;15.48;8.52;;;;;;;;;;7389087;19;20007;-41
2021/10/07 04:02:41;;;;;;;14.00;10.32;;;;;;;;;;7387305;19;20105;-41
2021/10/07 04:05:08;;;;;;;13.95;10.00;;;;;;;;;;7388497;19;20006;-44
2021/10/07 04:07:36;;;;;;;14.70;9.50;;;;;;;;;;7389292;19;20031;-51
2021/10/07 04:10:03;;;;;;;18.38;11.20;;;;;;;;;;7388495;19;20007;-43
2021/10/07 04:12:31;;;;;;;16.27;10.20;;;;;;;;;;7389395;19;20109;-51
2021/10/07 04:14:58;;;;;;;18.95;9.93;;;;;;;;;;7387669;19;20595;-41
2021/10/07 04:17:26;;;;;;;22.20;10.00;;;;;;;;;;7387566;19;20018;-43
2021/10/07 04:19:53;;;;;;;15.63;10.25;;;;;;;;;;7388738;19;20023;-41
2021/10/07 04:22:20;;;;;;;12.75;9.65;;;;;;;;;;7388250;19;20026;-47
2021/10/07 04:24:47;;;;;;;15.35;9.93;;;;;;;;;;7388014;19;20014;-42
2021/10/07 04:27:17;;;;;;;13.88;8.15;;;;;;;;;;7387982;19;20015;-43
2021/10/07 04:29:44;;;;;;;15.38;9.70;;;;;;;;;;7388257;19;20011;-43
2021/10/07 04:32:12;;;;;;;15.88;9.77;;;;;;;;;;7387381;19;20485;-42
2021/10/07 04:34:39;;;;;;;14.30;8.90;;;;;;;;;;7387749;19;20015;-42
2021/10/07 04:37:06;;;;;;;14.05;8.27;;;;;;;;;;7388073;19;20059;-47
2021/10/07 04:39:34;;;;;;;14.68;9.18;;;;;;;;;;7387824;19;20017;-44
2021/10/07 04:42:01;;;;;;;11.52;8.85;;;;;;;;;;7387712;19;20493;-44
2021/10/07 04:44:29;;;;;;;13.27;9.15;;;;;;;;;;7387447;19;20419;-41
2021/10/07 04:46:56;;;;;;;15.18;9.63;;;;;;;;;;7394533;19;20080;-45
2021/10/07 04:49:23;;;;;;;14.55;8.95;;;;;;;;;;7394148;19;20050;-41
2021/10/07 04:51:50;;;;;;;15.02;9.27;;;;;;;;;;7394570;19;20014;-41
2021/10/07 04:54:18;;;;;;;23.33;9.18;;;;;;;;;;7394958;19;20018;-42
2021/10/07 04:56:45;;;;;;;14.25;9.10;;;;;;;;;;7395008;19;20014;-45
2021/10/07 04:59:12;;;;;;;205.52;73.75;;;;;;;;;;7394952;19;20050;-43
2021/10/07 05:01:40;;;;;;;28.30;17.00;;;;;;;;;;7395062;19;20022;-41
2021/10/07 05:04:07;;;;;;;12.30;8.82;;;;;;;;;;7394856;19;20015;-41
2021/10/07 05:06:34;;;;;;;14.02;9.15;;;;;;;;;;7391567;19;20018;-42
2021/10/07 05:09:02;;;;;;;16.60;9.38;;;;;;;;;;7394727;19;20588;-44
2021/10/07 05:11:29;;;;;;;13.25;8.30;;;;;;;;;;7395089;19;20033;-42
2021/10/07 05:13:57;;;;;;;9.85;8.02;;;;;;;;;;7394662;19;20031;-49
2021/10/07 05:16:24;;;;;;;17.05;8.48;;;;;;;;;;7393984;19;20031;-46
2021/10/07 05:18:52;;;;;;;12.82;8.75;;;;;;;;;;7391524;19;20049;-41
2021/10/07 05:21:19;;;;;;;9.57;7.70;;;;;;;;;;7394072;19;20018;-42
2021/10/07 05:23:47;;;;;;;11.13;8.18;;;;;;;;;;7395807;19;20010;-44
2021/10/07 05:26:15;;;;;;;12.02;8.52;;;;;;;;;;7391654;19;20037;-41
2021/10/07 05:28:44;;;;;;;11.27;8.63;;;;;;;;;;7393592;19;20019;-44
2021/10/07 05:31:12;;;;;;;11.60;8.48;;;;;;;;;;7392581;19;20013;-47
2021/10/07 05:33:39;;;;;;;13.77;8.20;;;;;;;;;;7393776;19;20019;-42
2021/10/07 05:36:07;;;;;;;45.38;26.75;;;;;;;;;;7390552;19;20017;-45
2021/10/07 05:38:34;;;;;;;22.48;14.32;;;;;;;;;;7392861;19;20013;-44
2021/10/07 05:41:02;;;;;;;14.25;9.13;;;;;;;;;;7392910;19;20010;-42
2021/10/07 05:43:30;;;;;;;13.00;8.50;;;;;;;;;;7388763;19;20541;-46
2021/10/07 05:45:57;;;;;;;11.60;8.02;;;;;;;;;;7389420;19;20014;-40
2021/10/07 05:48:26;;;;;;;16.35;8.50;;;;;;;;;;7392665;19;20014;-46
2021/10/07 05:50:54;;;;;;;12.05;7.78;;;;;;;;;;7392958;19;20121;-42
2021/10/07 05:53:22;;;;;;;12.85;8.02;;;;;;;;;;7392304;19;20011;-43
2021/10/07 05:55:49;;;;;;;13.75;8.32;;;;;;;;;;7390666;19;20037;-41
2021/10/07 05:58:17;;;;;;;13.45;8.63;;;;;;;;;;7391440;19;20011;-49
2021/10/07 06:00:44;;;;;;;14.45;8.07;;;;;;;;;;7386813;19;20015;-41
2021/10/07 06:03:12;;;;;;;13.05;8.30;;;;;;;;;;7392252;19;20010;-42
2021/10/07 06:05:41;;;;;;;13.77;7.93;;;;;;;;;;7391698;19;20014;-42
2021/10/07 06:08:08;;;;;;;13.52;8.20;;;;;;;;;;7391926;19;20018;-43
2021/10/07 06:10:36;;;;;;;14.20;8.77;;;;;;;;;;7389320;19;20025;-42
2021/10/07 06:13:03;;;;;;;12.82;8.40;;;;;;;;;;7391315;19;20010;-44
2021/10/07 06:15:31;;;;;;;17.10;8.25;;;;;;;;;;7387549;19;20015;-41
2021/10/07 06:18:00;;;;;;;15.30;7.82;;;;;;;;;;7387009;19;20472;-43
2021/10/07 06:22:57;;;;;;;14.77;8.05;;;;;;;;;;7387924;19;20011;-49
2021/10/07 06:25:25;;;;;;;319.85;148.00;;;;;;;;;;7386012;19;20014;-48
2021/10/07 06:27:52;;;;;;;28.98;16.20;;;;;;;;;;7386497;19;20434;-42
2021/10/07 06:30:21;;;;;;;14.00;9.10;;;;;;;;;;7387965;19;20482;-43
2021/10/07 06:32:49;;;;;;;15.63;8.55;;;;;;;;;;7390386;19;20509;-46
2021/10/07 06:35:18;;;;;;;18.23;8.07;;;;;;;;;;7387474;19;20371;-41
2021/10/07 06:37:45;;;;;;;13.80;7.78;;;;;;;;;;7387743;19;20033;-42
2021/10/07 06:40:13;;;;;;;10.25;7.95;;;;;;;;;;7387277;19;20064;-44
2021/10/07 06:42:42;;;;;;;11.02;7.57;;;;;;;;;;7387290;19;20018;-42
2021/10/07 06:45:10;;;;;;;14.93;8.00;;;;;;;;;;7387568;19;20042;-41
2021/10/07 06:47:39;;;;;;;11.85;8.48;;;;;;;;;;7387098;19;20129;-43
2021/10/07 06:50:10;;;;;;;16.27;7.57;;;;;;;;;;7386063;19;20018;-42
2021/10/07 06:52:41;;;;;;;12.70;7.97;;;;;;;;;;7387371;19;20021;-48
2021/10/07 06:55:10;;;;;;;13.50;8.25;;;;;;;;;;7384757;19;20501;-42
2021/10/07 06:57:42;;;;;;;28.42;18.42;;;;;;;;;;7387444;19;20396;-45
2021/10/07 07:00:10;;;;;;;13.70;9.35;;;;;;;;;;7386675;19;20014;-42
2021/10/07 07:02:41;;;;;;;11.52;7.55;;;;;;;;;;7387043;19;20032;-44
2021/10/07 07:05:10;;;;;;;14.55;8.02;;;;;;;;;;7386351;19;20014;-42
2021/10/07 07:07:38;;;;;;;14.88;7.93;;;;;;;;;;7384868;19;20019;-45
2021/10/07 07:10:06;;;;;;;13.25;7.82;;;;;;;;;;7387058;19;20014;-44
2021/10/07 07:12:47;;;;;;;18.77;8.55;;;;;;;;;;7388319;19;20038;-42
2021/10/07 07:15:15;;;;;;;15.50;8.50;;;;;;;;;;7385428;19;20033;-43
2021/10/07 07:17:42;;;;;;;12.60;7.85;;;;;;;;;;7384631;19;20022;-44
2021/10/07 07:20:10;;;;;;;14.52;9.32;;;;;;;;;;7385385;19;20022;-44
2021/10/07 07:22:38;;;;;;;18.83;10.10;;;;;;;;;;7385907;19;20025;-43
2021/10/07 07:25:08;;;;;;;16.63;9.70;;;;;;;;;;7385185;19;20074;-40
2021/10/07 07:27:35;;;;;;;19.38;11.38;;;;;;;;;;7386183;19;20755;-42
2021/10/07 07:30:05;;;;;;;15.68;10.30;;;;;;;;;;7385778;19;20014;-43
2021/10/07 07:32:33;;;;;;;17.48;10.38;;;;;;;;;;7385253;19;20044;-42
2021/10/07 07:35:01;;;;;;;16.65;10.30;;;;;;;;;;7389971;19;20018;-43
2021/10/07 07:37:28;;;;;;;13.70;10.05;;;;;;;;;;7386392;19;20006;-48
2021/10/07 07:39:56;;;;;;;17.80;10.82;;;;;;;;;;7385899;19;20800;-43
2021/10/07 07:42:24;;;;;;;15.95;10.48;;;;;;;;;;7385078;19;20042;-43
2021/10/07 07:44:52;;;;;;;17.83;10.65;;;;;;;;;;7386938;19;20033;-46
2021/10/07 07:47:21;;;;;;;15.63;10.93;;;;;;;;;;7381748;19;20014;-46
2021/10/07 07:49:48;;;;;;;15.30;10.80;;;;;;;;;;7385294;19;20025;-43
2021/10/07 07:52:16;;;;;;;16.13;10.50;;;;;;;;;;7385475;19;20014;-44
2021/10/07 07:54:43;;;;;;;17.98;11.50;;;;;;;;;;7385529;19;20010;-44
2021/10/07 07:57:11;;;;;;;17.48;11.95;;;;;;;;;;7385735;19;20501;-45
2021/10/07 07:59:38;;;;;;;53.10;32.35;;;;;;;;;;7383977;19;20021;-46
2021/10/07 08:02:06;;;;;;;20.95;12.85;;;;;;;;;;7383763;19;20010;-43
2021/10/07 08:04:33;;;;;;;20.88;11.32;;;;;;;;;;7383920;19;20035;-43
2021/10/07 08:07:01;;;;;;;18.60;10.32;;;;;;;;;;7383411;19;20014;-42
2021/10/07 08:09:28;;;;;;;23.17;11.93;;;;;;;;;;7384225;19;20007;-43
2021/10/07 08:11:55;;;;;;;18.63;12.95;;;;;;;;;;7385437;19;20014;-42
2021/10/07 08:14:23;;;;;;;27.58;15.73;;;;;;;;;;7384031;19;20090;-44
2021/10/07 08:16:50;;;;;;;17.85;11.60;;;;;;;;;;7384668;19;20033;-46
2021/10/07 08:19:18;;;;;;;15.65;11.50;;;;;;;;;;7381543;19;20026;-43
2021/10/07 08:21:45;;;;;;;16.55;11.00;;;;;;;;;;7383977;19;20435;-45
2021/10/07 08:24:16;;;;;;;19.17;11.88;;;;;;;;;;7386589;19;20010;-44
2021/10/07 08:26:43;;;;;;;15.82;11.05;;;;;;;;;;7384867;19;20018;-45
2021/10/07 08:29:11;;;;;;;17.58;10.10;;;;;;;;;;7388092;19;20482;-42
2021/10/07 08:31:38;;;;;;;17.00;10.90;;;;;;;;;;7388016;19;20078;-46
2021/10/07 08:34:06;;;;;;;17.58;10.40;;;;;;;;;;7386320;19;20023;-43
2021/10/07 08:36:36;;;;;;;16.48;11.55;;;;;;;;;;7387329;19;20011;-50
2021/10/07 08:39:03;;;;;;;15.40;11.07;;;;;;;;;;7386692;19;20014;-44
2021/10/07 08:41:31;;;;;;;16.90;11.02;;;;;;;;;;7387411;19;20015;-44
2021/10/07 08:44:02;;;;;;;16.05;10.80;;;;;;;;;;7387475;19;20022;-42
2021/10/07 08:46:30;;;;;;;36.28;19.25;;;;;;;;;;7386777;19;20069;-43
2021/10/07 08:48:59;;;;;;;46.45;27.67;;;;;;;;;;7387462;19;20094;-43
2021/10/07 08:51:28;;;;;;;18.08;11.25;;;;;;;;;;7386370;19;20123;-46
2021/10/07 08:53:55;;;;;;;16.27;10.15;;;;;;;;;;7386903;19;20030;-41
2021/10/07 08:56:25;;;;;;;23.15;12.00;;;;;;;;;;7387166;19;20098;-47
2021/10/07 08:58:53;;;;;;;16.48;11.30;;;;;;;;;;7387054;19;20026;-43
2021/10/07 09:01:37;;;;;;;14.05;10.38;;;;;;;;;;7387179;19;20023;-42
2021/10/07 09:04:23;;;;;;;15.63;11.05;;;;;;;;;;7385503;19;20014;-44
2021/10/07 09:06:59;;;;;;;26.25;15.18;;;;;;;;;;7385919;19;20011;-44
2021/10/07 09:10:19;;;;;;;19.08;11.65;;;;;;;;;;7386983;19;20018;-47
2021/10/07 09:13:27;;;;;;;16.05;10.85;;;;;;;;;;7388884;19;20010;-47
2021/10/07 09:15:59;;;;;;;46.03;25.90;;;;;;;;;;7387077;19;20029;-45
2021/10/07 09:18:29;;;;;;;27.10;18.55;;;;;;;;;;7384943;19;20035;-45
2021/10/07 09:20:59;;;;;;;44.50;28.17;;;;;;;;;;7385906;19;20486;-47
2021/10/07 09:23:34;;;;;;;24.10;15.05;;;;;;;;;;7386136;19;20018;-47
2021/10/07 09:26:11;;;;;;;260.35;116.25;;;;;;;;;;7388668;19;20490;-42
2021/10/07 09:28:59;;;;;;;32.72;23.60;;;;;;;;;;7386601;19;20016;-47
2021/10/07 09:31:31;;;;;;;18.52;12.68;;;;;;;;;;7389098;19;20089;-44
2021/10/07 09:34:04;;;;;;;17.33;10.95;;;;;;;;;;7393144;19;20018;-42
2021/10/07 09:36:33;;;;;;;16.73;11.80;;;;;;;;;;7394294;19;20010;-43
2021/10/07 09:39:02;;;;;;;17.27;12.52;;;;;;;;;;7394158;19;20022;-50
2021/10/07 09:41:32;;;;;;;16.00;12.02;;;;;;;;;;7393092;19;20014;-45
2021/10/07 09:44:06;;;;;;;18.60;12.18;;;;;;;;;;7392963;19;20037;-48
2021/10/07 09:46:49;;;;;;;14.30;10.25;;;;;;;;;;7392845;19;20025;-45
2021/10/07 09:49:35;;;;;;;16.10;11.23;;;;;;;;;;7393115;19;20448;-44
2021/10/07 09:52:03;;;;;;;18.23;12.20;;;;;;;;;;7392479;19;20013;-42
2021/10/07 09:54:35;;;;;;;17.00;11.63;;;;;;;;;;7392264;19;20011;-44
2021/10/07 09:57:04;;;;;;;26.25;16.38;;;;;;;;;;7393130;19;20464;-50
2021/10/07 09:59:33;;;;;;;17.23;11.38;;;;;;;;;;7392657;19;20039;-48
2021/10/07 10:02:01;;;;;;;16.38;12.27;;;;;;;;;;7392166;19;20021;-43
2021/10/07 10:04:30;;;;;;;17.20;11.80;;;;;;;;;;7392350;19;20363;-44
2021/10/07 10:06:58;;;;;;;20.60;11.52;;;;;;;;;;7390165;19;20031;-45
2021/10/07 10:09:27;;;;;;;18.98;12.07;;;;;;;;;;7392672;19;20372;-44
2021/10/07 10:11:55;;;;;;;143.27;82.40;;;;;;;;;;7392765;19;20032;-44
2021/10/07 10:14:23;;;;;;;23.05;15.05;;;;;;;;;;7392395;19;20021;-48
2021/10/07 10:16:51;;;;;;;17.27;11.40;;;;;;;;;;7392113;19;20014;-44
2021/10/07 10:19:19;;;;;;;16.65;11.38;;;;;;;;;;7391292;19;20014;-43
2021/10/07 10:21:47;;;;;;;19.50;11.80;;;;;;;;;;7391616;19;20081;-51
2021/10/07 10:24:18;;;;;;;17.38;11.45;;;;;;;;;;7391765;19;20019;-43
2021/10/07 10:27:02;;;;;;;15.35;12.02;;;;;;;;;;7388422;19;20010;-43
2021/10/07 10:29:33;;;;;;;16.13;10.80;;;;;;;;;;7391780;19;20486;-42
2021/10/07 10:32:03;;;;;;;16.27;11.30;;;;;;;;;;7393203;19;20015;-43
2021/10/07 10:34:46;;;;;;;18.17;11.85;;;;;;;;;;7389741;19;20014;-47
2021/10/07 10:37:15;;;;;;;14.23;11.15;;;;;;;;;;7390910;19;20462;-43
2021/10/07 10:39:47;;;;;;;14.13;10.18;;;;;;;;;;7391114;19;20026;-43
2021/10/07 10:42:15;;;;;;;16.43;11.13;;;;;;;;;;7390809;19;20010;-43
2021/10/07 10:45:03;;;;;;;15.43;10.88;;;;;;;;;;7390867;19;20014;-43
2021/10/07 10:47:40;;;;;;;14.05;9.43;;;;;;;;;;7389357;19;20540;-42
2021/10/07 10:50:12;;;;;;;15.88;9.50;;;;;;;;;;7391996;19;20018;-42
2021/10/07 10:52:46;;;;;;;13.73;10.32;;;;;;;;;;7390047;19;20014;-42
2021/10/07 10:55:15;;;;;;;18.27;9.75;;;;;;;;;;7389637;19;20007;-46
2021/10/07 10:57:50;;;;;;;16.50;10.20;;;;;;;;;;7389039;19;20339;-43
2021/10/07 11:00:32;;;;;;;13.05;9.43;;;;;;;;;;7390968;19;20010;-43
2021/10/07 11:03:06;;;;;;;13.80;10.07;;;;;;;;;;7390419;19;20030;-42
2021/10/07 11:05:41;;;;;;;14.23;9.65;;;;;;;;;;7390261;19;20235;-44
2021/10/07 11:08:08;;;;;;;15.43;10.80;;;;;;;;;;7389046;19;20022;-42
2021/10/07 11:10:58;;;;;;;14.70;10.00;;;;;;;;;;7390395;19;20011;-44
2021/10/07 11:13:33;;;;;;;15.07;9.65;;;;;;;;;;7393345;19;20015;-42
2021/10/07 11:16:04;;;;;;;16.83;10.30;;;;;;;;;;7390576;19;20015;-50
2021/10/07 11:18:35;;;;;;;14.27;9.70;;;;;;;;;;7388765;19;20401;-42
2021/10/07 11:21:06;;;;;;;18.13;10.00;;;;;;;;;;7390142;19;20015;-43
2021/10/07 11:23:36;;;;;;;19.13;10.48;;;;;;;;;;7389821;19;20082;-43
2021/10/07 11:26:04;;;;;;;12.40;8.82;;;;;;;;;;7390097;19;20027;-46
2021/10/07 11:28:40;;;;;;;13.40;9.85;;;;;;;;;;7389452;19;20029;-44
2021/10/07 11:31:12;;;;;;;15.55;10.07;;;;;;;;;;7389326;19;20015;-43
2021/10/07 11:33:42;;;;;;;13.23;9.32;;;;;;;;;;7388814;19;20018;-43
2021/10/07 11:36:14;;;;;;;15.05;10.98;;;;;;;;;;7390166;19;20036;-45
2021/10/07 11:38:45;;;;;;;14.63;9.57;;;;;;;;;;7388143;19;20014;-43
2021/10/07 11:41:15;;;;;;;14.63;10.80;;;;;;;;;;7389144;19;20073;-43
2021/10/07 11:43:44;;;;;;;13.00;9.32;;;;;;;;;;7390543;19;20014;-44
2021/10/07 11:46:14;;;;;;;14.35;9.30;;;;;;;;;;7389131;19;20010;-42
2021/10/07 11:48:52;;;;;;;17.05;10.75;;;;;;;;;;7389474;19;20030;-42
2021/10/07 11:51:23;;;;;;;77.03;34.53;;;;;;;;;;7388998;19;20516;-63
2021/10/07 11:53:51;;;;;;;21.88;12.48;;;;;;;;;;7387531;19;20466;-46
2021/10/07 11:56:24;;;;;;;16.52;10.80;;;;;;;;;;7388297;19;20022;-44
2021/10/07 11:58:58;;;;;;;20.27;11.38;;;;;;;;;;7386359;19;20017;-43
2021/10/07 12:01:28;;;;;;;;;;;;;;;;;;7386282;19;20037;-42
2021/10/07 12:03:58;;;;;;;15.55;9.60;;;;;;;;;;7386510;19;19918;-46
2021/10/07 12:06:28;;;;;;;14.38;10.38;;;;;;;;;;7387243;19;20737;-46
2021/10/07 12:08:55;;;;;;;18.10;10.50;;;;;;;;;;7384535;19;20018;-45
2021/10/07 12:11:25;;;;;;;12.18;9.65;;;;;;;;;;7384318;19;20097;-43
2021/10/07 12:13:57;;;;;;;14.00;10.57;;;;;;;;;;7383440;19;20011;-44
2021/10/07 12:16:34;;;;;;;65.90;31.15;;;;;;;;;;7385092;19;20042;-43
2021/10/07 12:19:05;;;;;;;142.70;70.93;;;;;;;;;;7382525;19;20018;-45
2021/10/07 12:21:41;;;;;;;16.33;10.70;;;;;;;;;;7384781;19;20019;-45
2021/10/07 12:24:10;;;;;;;17.50;9.65;;;;;;;;;;7384308;19;20015;-42
2021/10/07 12:26:38;;;;;;;16.00;10.35;;;;;;;;;;7384418;19;20519;-44
2021/10/07 12:29:12;;;;;;;12.13;9.57;;;;;;;;;;7384478;19;20054;-43
2021/10/07 12:31:47;;;;;;;19.23;10.77;;;;;;;;;;7384182;19;20014;-40
2021/10/07 12:34:15;;;;;;;15.35;9.90;;;;;;;;;;7383418;19;20034;-42
2021/10/07 12:36:46;;;;;;;15.93;11.63;;;;;;;;;;7384099;19;20021;-44
2021/10/07 12:39:26;;;;;;;19.17;12.27;;;;;;;;;;7383041;19;20014;-47
2021/10/07 12:41:59;;;;;;;27.45;16.80;;;;;;;;;;7382120;19;20374;-43
2021/10/07 12:44:29;;;;;;;19.67;10.90;;;;;;;;;;7384638;19;20044;-40
2021/10/07 12:46:59;;;;;;;13.27;9.93;;;;;;;;;;7382860;19;20018;-42
2021/10/07 12:49:41;;;;;;;21.83;11.45;;;;;;;;;;7383337;19;20015;-38
2021/10/07 12:52:19;;;;;;;17.08;11.13;;;;;;;;;;7381492;19;20117;-44
2021/10/07 12:54:50;;;;;;;16.45;11.32;;;;;;;;;;7382773;19;20013;-40
2021/10/07 12:57:39;;;;;;;16.35;11.02;;;;;;;;;;7383724;19;20017;-43
2021/10/07 13:00:19;;;;;;;21.80;11.57;;;;;;;;;;7382447;19;20021;-65
2021/10/07 13:02:47;;;;;;;20.00;12.80;;;;;;;;;;7383417;19;20485;-55
2021/10/07 13:05:18;;;;;;;18.83;11.48;;;;;;;;;;7381642;19;20010;-58
2021/10/07 13:07:49;;;;;;;99.53;47.50;;;;;;;;;;7389721;19;20010;-51
2021/10/07 13:10:17;;;;;;;17.40;12.73;;;;;;;;;;7390631;19;20486;-49
2021/10/07 13:12:44;;;;;;;16.08;10.50;;;;;;;;;;7393183;19;20033;-52
2021/10/07 13:15:14;;;;;;;14.77;10.85;;;;;;;;;;7390133;19;20604;-50
2021/10/07 13:17:44;;;;;;;18.77;10.70;;;;;;;;;;7388410;19;20026;-50
2021/10/07 13:20:11;;;;;;;16.60;10.27;;;;;;;;;;7390259;19;20018;-47
2021/10/07 13:22:39;;;;;;;19.55;10.38;;;;;;;;;;7389862;19;20011;-55
2021/10/07 13:25:12;;;;;;;14.02;9.55;;;;;;;;;;7390112;19;20037;-47
2021/10/07 13:27:41;;;;;;;14.35;9.95;;;;;;;;;;7393617;19;20029;-53
2021/10/07 13:30:14;;;;;;;13.93;10.45;;;;;;;;;;7387890;19;20014;-53
2021/10/07 13:32:46;;;;;;;16.10;9.82;;;;;;;;;;7389411;19;20018;-51
2021/10/07 13:35:15;;;;;;;16.40;9.77;;;;;;;;;;7388846;19;20664;-50
2021/10/07 13:37:52;;;;;;;16.10;10.10;;;;;;;;;;7390001;19;20014;-49
2021/10/07 13:40:22;;;;;;;15.25;10.07;;;;;;;;;;7390259;19;20033;-52
2021/10/07 13:42:50;;;;;;;13.95;9.88;;;;;;;;;;7388317;19;20041;-52
2021/10/07 13:45:18;;;;;;;11.38;9.00;;;;;;;;;;7388675;19;20424;-52
2021/10/07 13:47:54;;;;;;;13.25;9.55;;;;;;;;;;7385854;19;20369;-51
2021/10/07 13:50:22;;;;;;;14.10;10.35;;;;;;;;;;7388837;19;20017;-50
2021/10/07 13:52:49;;;;;;;13.90;9.73;;;;;;;;;;7388176;19;20481;-53
2021/10/07 13:55:17;;;;;;;15.27;9.32;;;;;;;;;;7387351;19;20014;-50
2021/10/07 13:57:45;;;;;;;12.95;9.38;;;;;;;;;;7388104;19;20011;-53
2021/10/07 14:00:13;;;;;;;221.95;121.78;;;;;;;;;;7388153;19;20015;-52
2021/10/07 14:02:40;;;;;;;15.93;10.27;;;;;;;;;;7388872;19;20018;-53
2021/10/07 14:05:08;;;;;;;14.05;9.35;;;;;;;;;;7395492;19;20045;-60
2021/10/07 14:07:36;;;;;;;11.18;8.35;;;;;;;;;;7394473;19;20006;-55
2021/10/07 14:10:05;;;;;;;12.73;8.75;;;;;;;;;;7395498;19;20054;-57
2021/10/07 14:12:32;;;;;;;12.68;9.55;;;;;;;;;;7397913;19;20686;-49
2021/10/07 14:15:00;;;;;;;12.85;8.93;;;;;;;;;;7395616;19;20021;-50
2021/10/07 14:17:27;;;;;;;14.40;8.95;;;;;;;;;;7394414;19;20017;-54
2021/10/07 14:19:54;;;;;;;14.32;9.02;;;;;;;;;;7394587;19;20034;-53
2021/10/07 14:22:22;;;;;;;14.32;9.50;;;;;;;;;;7396063;19;20019;-45
2021/10/07 14:24:49;;;;;;;15.20;9.85;;;;;;;;;;7394433;19;20025;-50
2021/10/07 14:27:17;;;;;;;13.10;8.60;;;;;;;;;;7394873;19;20007;-53
2021/10/07 14:29:46;;;;;;;13.02;8.60;;;;;;;;;;7399350;19;20129;-51
2021/10/07 14:32:13;;;;;;;14.70;9.38;;;;;;;;;;7396397;19;20529;-58
2021/10/07 14:34:41;;;;;;;12.02;8.38;;;;;;;;;;7393237;19;20014;-59
2021/10/07 14:37:10;;;;;;;15.10;10.40;;;;;;;;;;7394615;19;20014;-49
2021/10/07 14:39:37;;;;;;;11.32;8.85;;;;;;;;;;7394808;19;20014;-50
2021/10/07 14:42:06;;;;;;;14.52;9.55;;;;;;;;;;7393692;19;20014;-51
2021/10/07 14:44:34;;;;;;;12.90;8.63;;;;;;;;;;7395484;19;20018;-50
2021/10/07 14:47:02;;;;;;;11.90;8.65;;;;;;;;;;7396089;19;20011;-49